sensor_id;sensor_type;location;lat;lon;timestamp;temperature;humidity
19385;DHT22;9828;54.122;17.974;2022-07-04T00:01:14;18.90;99.90
19385;DHT22;9828;54.122;17.974;2022-07-04T00:06:36;18.90;99.90
19385;DHT22;9828;54.122;17.974;2022-07-04T00:11:57;18.80;99.90
19385;DHT22;9828;54.122;17.974;2022-07-04T00:17:18;18.80;99.90
19385;DHT22;9828;54.122;17.974;2022-07-04T00:22:40;18.80;99.90
19385;DHT22;9828;54.122;17.974;2022-07-04T00:28:01;18.80;99.90
19385;DHT22;9828;54.122;17.974;2022-07-04T00:33:23;18.90;99.90
19385;DHT22;9828;54.122;17.974;2022-07-04T00:38:44;18.80;99.90
19385;DHT22;9828;54.122;17.974;2022-07-04T00:44:08;18.70;99.90
19385;DHT22;9828;54.122;17.974;2022-07-04T00:49:32;18.60;99.90
19385;DHT22;9828;54.122;17.974;2022-07-04T00:54:53;18.60;99.90
19385;DHT22;9828;54.122;17.974;2022-07-04T01:00:15;18.50;99.90
19385;DHT22;9828;54.122;17.974;2022-07-04T01:05:38;18.50;99.90
19385;DHT22;9828;54.122;17.974;2022-07-04T01:10:59;18.40;99.90
19385;DHT22;9828;54.122;17.974;2022-07-04T01:16:21;18.30;99.90
19385;DHT22;9828;54.122;17.974;2022-07-04T01:21:43;18.30;99.90
19385;DHT22;9828;54.122;17.974;2022-07-04T01:27:04;18.30;99.90
19385;DHT22;9828;54.122;17.974;2022-07-04T01:32:25;18.30;99.90
19385;DHT22;9828;54.122;17.974;2022-07-04T01:37:46;18.30;99.90
19385;DHT22;9828;54.122;17.974;2022-07-04T01:43:08;18.20;99.90
19385;DHT22;9828;54.122;17.974;2022-07-04T01:48:30;18.20;99.90
19385;DHT22;9828;54.122;17.974;2022-07-04T01:53:51;18.20;99.90
19385;DHT22;9828;54.122;17.974;2022-07-04T01:59:13;18.20;99.90
19385;DHT22;9828;54.122;17.974;2022-07-04T02:04:34;18.20;99.90
19385;DHT22;9828;54.122;17.974;2022-07-04T02:09:55;18.10;99.90
19385;DHT22;9828;54.122;17.974;2022-07-04T02:15:17;18.20;99.90
19385;DHT22;9828;54.122;17.974;2022-07-04T02:20:38;18.10;87.10
19385;DHT22;9828;54.122;17.974;2022-07-04T02:26:00;18.10;58.40
19385;DHT22;9828;54.122;17.974;2022-07-04T02:31:22;18.00;1.00
19385;DHT22;9828;54.122;17.974;2022-07-04T02:36:43;18.00;1.00
19385;DHT22;9828;54.122;17.974;2022-07-04T02:42:05;18.00;1.00
19385;DHT22;9828;54.122;17.974;2022-07-04T02:47:26;18.00;1.00
19385;DHT22;9828;54.122;17.974;2022-07-04T02:52:48;18.00;1.00
19385;DHT22;9828;54.122;17.974;2022-07-04T02:58:09;18.00;1.00
19385;DHT22;9828;54.122;17.974;2022-07-04T03:03:30;18.00;1.00
19385;DHT22;9828;54.122;17.974;2022-07-04T03:08:52;18.00;1.00
19385;DHT22;9828;54.122;17.974;2022-07-04T03:14:13;18.00;1.00
19385;DHT22;9828;54.122;17.974;2022-07-04T03:19:35;18.00;1.00
19385;DHT22;9828;54.122;17.974;2022-07-04T03:24:57;18.00;1.00
19385;DHT22;9828;54.122;17.974;2022-07-04T03:30:19;18.10;1.00
19385;DHT22;9828;54.122;17.974;2022-07-04T03:35:40;18.20;1.00
19385;DHT22;9828;54.122;17.974;2022-07-04T03:41:02;18.30;1.00
19385;DHT22;9828;54.122;17.974;2022-07-04T03:46:23;18.40;1.00
19385;DHT22;9828;54.122;17.974;2022-07-04T03:51:45;18.40;1.00
19385;DHT22;9828;54.122;17.974;2022-07-04T03:57:06;18.40;1.00
19385;DHT22;9828;54.122;17.974;2022-07-04T04:02:28;18.40;1.00
19385;DHT22;9828;54.122;17.974;2022-07-04T04:07:49;18.40;1.00
19385;DHT22;9828;54.122;17.974;2022-07-04T04:13:11;18.50;1.00
19385;DHT22;9828;54.122;17.974;2022-07-04T04:18:32;18.50;99.90
19385;DHT22;9828;54.122;17.974;2022-07-04T04:23:53;18.70;99.90
19385;DHT22;9828;54.122;17.974;2022-07-04T04:29:15;18.80;99.90
19385;DHT22;9828;54.122;17.974;2022-07-04T04:34:36;18.90;99.90
19385;DHT22;9828;54.122;17.974;2022-07-04T04:39:58;19.00;90.00
19385;DHT22;9828;54.122;17.974;2022-07-04T04:45:19;19.00;26.90
19385;DHT22;9828;54.122;17.974;2022-07-04T04:50:41;19.00;1.00
19385;DHT22;9828;54.122;17.974;2022-07-04T04:56:03;19.20;1.00
19385;DHT22;9828;54.122;17.974;2022-07-04T05:01:24;19.30;1.00
19385;DHT22;9828;54.122;17.974;2022-07-04T05:07:00;19.50;99.90
19385;DHT22;9828;54.122;17.974;2022-07-04T05:12:21;19.70;1.00
19385;DHT22;9828;54.122;17.974;2022-07-04T05:17:42;20.10;1.00
19385;DHT22;9828;54.122;17.974;2022-07-04T05:23:04;20.40;1.00
19385;DHT22;9828;54.122;17.974;2022-07-04T05:28:25;20.50;99.90
19385;DHT22;9828;54.122;17.974;2022-07-04T05:33:46;20.50;99.90
19385;DHT22;9828;54.122;17.974;2022-07-04T05:39:08;20.50;1.00
19385;DHT22;9828;54.122;17.974;2022-07-04T05:44:29;20.50;1.00
19385;DHT22;9828;54.122;17.974;2022-07-04T05:49:50;20.60;99.90
19385;DHT22;9828;54.122;17.974;2022-07-04T05:55:12;20.90;58.80
19385;DHT22;9828;54.122;17.974;2022-07-04T06:00:34;21.40;1.00
19385;DHT22;9828;54.122;17.974;2022-07-04T06:05:56;21.80;99.90
19385;DHT22;9828;54.122;17.974;2022-07-04T06:11:18;22.30;99.90
19385;DHT22;9828;54.122;17.974;2022-07-04T06:16:39;22.40;1.00
19385;DHT22;9828;54.122;17.974;2022-07-04T06:22:01;22.40;1.00
19385;DHT22;9828;54.122;17.974;2022-07-04T06:27:22;22.40;1.00
19385;DHT22;9828;54.122;17.974;2022-07-04T06:32:49;22.40;99.90
19385;DHT22;9828;54.122;17.974;2022-07-04T06:38:13;22.60;99.90
19385;DHT22;9828;54.122;17.974;2022-07-04T06:43:34;23.00;99.90
19385;DHT22;9828;54.122;17.974;2022-07-04T06:48:56;23.00;99.90
19385;DHT22;9828;54.122;17.974;2022-07-04T06:54:17;22.90;53.00
19385;DHT22;9828;54.122;17.974;2022-07-04T06:59:38;22.60;10.20
19385;DHT22;9828;54.122;17.974;2022-07-04T07:05:00;22.30;1.00
19385;DHT22;9828;54.122;17.974;2022-07-04T07:10:25;22.00;58.90
19385;DHT22;9828;54.122;17.974;2022-07-04T07:15:46;21.80;99.90
19385;DHT22;9828;54.122;17.974;2022-07-04T07:21:08;21.70;99.90
19385;DHT22;9828;54.122;17.974;2022-07-04T07:26:30;21.50;1.00
19385;DHT22;9828;54.122;17.974;2022-07-04T07:31:51;21.10;99.90
19385;DHT22;9828;54.122;17.974;2022-07-04T07:37:13;20.70;1.00
19385;DHT22;9828;54.122;17.974;2022-07-04T07:42:35;20.60;1.00
19385;DHT22;9828;54.122;17.974;2022-07-04T07:47:56;20.50;99.90
19385;DHT22;9828;54.122;17.974;2022-07-04T07:53:18;20.30;1.00
19385;DHT22;9828;54.122;17.974;2022-07-04T07:58:39;20.20;15.60
19385;DHT22;9828;54.122;17.974;2022-07-04T08:04:03;20.20;1.00
19385;DHT22;9828;54.122;17.974;2022-07-04T08:09:43;20.20;9.80
19385;DHT22;9828;54.122;17.974;2022-07-04T08:15:05;20.10;1.00
19385;DHT22;9828;54.122;17.974;2022-07-04T08:20:27;20.10;1.00
19385;DHT22;9828;54.122;17.974;2022-07-04T08:25:48;19.80;1.00
19385;DHT22;9828;54.122;17.974;2022-07-04T08:31:10;19.70;1.00
19385;DHT22;9828;54.122;17.974;2022-07-04T08:36:31;19.70;99.90
19385;DHT22;9828;54.122;17.974;2022-07-04T08:41:56;19.40;99.90
19385;DHT22;9828;54.122;17.974;2022-07-04T08:47:23;19.30;1.00
19385;DHT22;9828;54.122;17.974;2022-07-04T08:52:56;19.30;1.00
19385;DHT22;9828;54.122;17.974;2022-07-04T08:58:20;19.40;99.90
19385;DHT22;9828;54.122;17.974;2022-07-04T09:03:50;19.50;99.90
19385;DHT22;9828;54.122;17.974;2022-07-04T09:09:11;19.70;1.00
19385;DHT22;9828;54.122;17.974;2022-07-04T09:14:34;20.00;1.00
19385;DHT22;9828;54.122;17.974;2022-07-04T09:20:17;20.80;99.90
19385;DHT22;9828;54.122;17.974;2022-07-04T09:25:38;21.60;1.00
19385;DHT22;9828;54.122;17.974;2022-07-04T09:31:00;22.30;1.00
19385;DHT22;9828;54.122;17.974;2022-07-04T09:36:29;23.70;1.00
19385;DHT22;9828;54.122;17.974;2022-07-04T09:42:01;25.50;1.00
19385;DHT22;9828;54.122;17.974;2022-07-04T09:47:25;25.30;99.90
19385;DHT22;9828;54.122;17.974;2022-07-04T09:58:15;26.00;1.00
19385;DHT22;9828;54.122;17.974;2022-07-04T10:03:37;26.40;1.00
19385;DHT22;9828;54.122;17.974;2022-07-04T10:09:16;26.40;1.00
19385;DHT22;9828;54.122;17.974;2022-07-04T10:14:37;27.20;1.00
19385;DHT22;9828;54.122;17.974;2022-07-04T10:19:59;26.90;99.90
19385;DHT22;9828;54.122;17.974;2022-07-04T10:25:21;26.50;99.90
19385;DHT22;9828;54.122;17.974;2022-07-04T10:30:43;27.00;88.30
19385;DHT22;9828;54.122;17.974;2022-07-04T10:36:18;27.40;1.00
19385;DHT22;9828;54.122;17.974;2022-07-04T10:41:56;27.10;1.00
19385;DHT22;9828;54.122;17.974;2022-07-04T10:47:24;27.40;1.00
19385;DHT22;9828;54.122;17.974;2022-07-04T10:53:08;28.20;1.00
19385;DHT22;9828;54.122;17.974;2022-07-04T10:58:41;28.50;1.00
19385;DHT22;9828;54.122;17.974;2022-07-04T11:04:04;28.90;1.00
19385;DHT22;9828;54.122;17.974;2022-07-04T11:09:25;28.90;1.00
19385;DHT22;9828;54.122;17.974;2022-07-04T11:14:48;29.20;99.90
19385;DHT22;9828;54.122;17.974;2022-07-04T11:20:09;29.30;99.90
19385;DHT22;9828;54.122;17.974;2022-07-04T11:25:32;29.50;99.90
19385;DHT22;9828;54.122;17.974;2022-07-04T11:30:56;29.60;99.90
19385;DHT22;9828;54.122;17.974;2022-07-04T11:36:19;29.70;99.90
19385;DHT22;9828;54.122;17.974;2022-07-04T11:41:44;29.60;99.90
19385;DHT22;9828;54.122;17.974;2022-07-04T11:47:25;29.60;99.90
19385;DHT22;9828;54.122;17.974;2022-07-04T11:52:52;29.60;99.90
19385;DHT22;9828;54.122;17.974;2022-07-04T11:58:42;29.60;99.90
19385;DHT22;9828;54.122;17.974;2022-07-04T12:04:19;29.40;99.90
19385;DHT22;9828;54.122;17.974;2022-07-04T12:09:41;29.60;99.90
19385;DHT22;9828;54.122;17.974;2022-07-04T12:15:06;29.70;99.90
19385;DHT22;9828;54.122;17.974;2022-07-04T12:20:28;29.20;99.90
19385;DHT22;9828;54.122;17.974;2022-07-04T12:25:51;29.40;99.90
19385;DHT22;9828;54.122;17.974;2022-07-04T12:31:13;29.30;99.90
19385;DHT22;9828;54.122;17.974;2022-07-04T12:36:54;29.60;99.90
19385;DHT22;9828;54.122;17.974;2022-07-04T12:42:17;29.10;99.90
19385;DHT22;9828;54.122;17.974;2022-07-04T12:47:48;28.70;99.90
19385;DHT22;9828;54.122;17.974;2022-07-04T12:53:09;29.00;99.90
19385;DHT22;9828;54.122;17.974;2022-07-04T12:58:31;29.30;99.90
19385;DHT22;9828;54.122;17.974;2022-07-04T13:03:53;29.30;99.90
19385;DHT22;9828;54.122;17.974;2022-07-04T13:09:14;28.90;99.90
19385;DHT22;9828;54.122;17.974;2022-07-04T13:14:36;29.10;99.90
19385;DHT22;9828;54.122;17.974;2022-07-04T13:19:57;28.60;99.90
19385;DHT22;9828;54.122;17.974;2022-07-04T13:25:19;28.00;99.90
19385;DHT22;9828;54.122;17.974;2022-07-04T13:30:40;28.20;99.90
19385;DHT22;9828;54.122;17.974;2022-07-04T13:36:02;28.00;99.90
19385;DHT22;9828;54.122;17.974;2022-07-04T13:41:24;27.50;99.90
19385;DHT22;9828;54.122;17.974;2022-07-04T13:46:46;26.90;99.90
19385;DHT22;9828;54.122;17.974;2022-07-04T13:52:07;26.00;99.90
19385;DHT22;9828;54.122;17.974;2022-07-04T13:57:29;25.10;1.00
19385;DHT22;9828;54.122;17.974;2022-07-04T14:02:51;25.00;99.90
19385;DHT22;9828;54.122;17.974;2022-07-04T14:08:12;25.10;1.00
19385;DHT22;9828;54.122;17.974;2022-07-04T14:13:33;25.10;99.90
19385;DHT22;9828;54.122;17.974;2022-07-04T14:18:54;25.30;99.90
19385;DHT22;9828;54.122;17.974;2022-07-04T14:24:16;25.20;1.00
19385;DHT22;9828;54.122;17.974;2022-07-04T14:29:39;25.10;1.00
19385;DHT22;9828;54.122;17.974;2022-07-04T14:35:03;25.00;12.10
19385;DHT22;9828;54.122;17.974;2022-07-04T14:40:26;25.00;1.00
19385;DHT22;9828;54.122;17.974;2022-07-04T14:45:48;25.10;99.90
19385;DHT22;9828;54.122;17.974;2022-07-04T14:51:10;25.10;1.00
19385;DHT22;9828;54.122;17.974;2022-07-04T14:56:31;25.00;99.90
19385;DHT22;9828;54.122;17.974;2022-07-04T15:01:53;25.20;99.90
19385;DHT22;9828;54.122;17.974;2022-07-04T15:07:15;25.20;7.40
19385;DHT22;9828;54.122;17.974;2022-07-04T15:12:36;25.20;1.00
19385;DHT22;9828;54.122;17.974;2022-07-04T15:17:58;24.90;99.90
19385;DHT22;9828;54.122;17.974;2022-07-04T15:23:19;24.70;99.90
19385;DHT22;9828;54.122;17.974;2022-07-04T15:29:02;24.80;99.90
19385;DHT22;9828;54.122;17.974;2022-07-04T15:34:23;24.80;19.90
19385;DHT22;9828;54.122;17.974;2022-07-04T15:39:44;24.70;1.00
19385;DHT22;9828;54.122;17.974;2022-07-04T15:45:06;24.70;1.00
19385;DHT22;9828;54.122;17.974;2022-07-04T15:50:28;24.60;1.00
19385;DHT22;9828;54.122;17.974;2022-07-04T15:55:49;24.40;1.00
19385;DHT22;9828;54.122;17.974;2022-07-04T16:06:33;24.30;1.00
19385;DHT22;9828;54.122;17.974;2022-07-04T16:11:54;24.20;1.00
19385;DHT22;9828;54.122;17.974;2022-07-04T16:17:15;24.10;1.00
19385;DHT22;9828;54.122;17.974;2022-07-04T16:22:37;24.10;1.00
19385;DHT22;9828;54.122;17.974;2022-07-04T16:27:58;24.00;1.00
19385;DHT22;9828;54.122;17.974;2022-07-04T16:33:20;24.00;1.00
19385;DHT22;9828;54.122;17.974;2022-07-04T16:38:41;23.80;99.90
19385;DHT22;9828;54.122;17.974;2022-07-04T16:44:04;23.60;99.90
19385;DHT22;9828;54.122;17.974;2022-07-04T16:49:25;23.50;99.90
19385;DHT22;9828;54.122;17.974;2022-07-04T16:55:01;23.50;99.90
19385;DHT22;9828;54.122;17.974;2022-07-04T17:00:25;23.30;99.90
19385;DHT22;9828;54.122;17.974;2022-07-04T17:05:46;23.20;99.90
19385;DHT22;9828;54.122;17.974;2022-07-04T17:11:08;23.00;99.90
19385;DHT22;9828;54.122;17.974;2022-07-04T17:16:29;22.90;99.90
19385;DHT22;9828;54.122;17.974;2022-07-04T17:21:51;22.90;99.90
19385;DHT22;9828;54.122;17.974;2022-07-04T17:27:12;22.80;99.90
19385;DHT22;9828;54.122;17.974;2022-07-04T17:32:34;22.80;99.90
19385;DHT22;9828;54.122;17.974;2022-07-04T17:37:56;22.80;99.90
19385;DHT22;9828;54.122;17.974;2022-07-04T17:43:17;22.70;99.90
19385;DHT22;9828;54.122;17.974;2022-07-04T17:48:41;22.50;99.90
19385;DHT22;9828;54.122;17.974;2022-07-04T17:54:04;22.30;99.90
19385;DHT22;9828;54.122;17.974;2022-07-04T17:59:25;22.20;99.90
19385;DHT22;9828;54.122;17.974;2022-07-04T18:04:46;22.10;99.90
19385;DHT22;9828;54.122;17.974;2022-07-04T18:10:09;22.00;99.90
19385;DHT22;9828;54.122;17.974;2022-07-04T18:15:32;21.80;99.90
19385;DHT22;9828;54.122;17.974;2022-07-04T18:20:54;21.70;99.90
19385;DHT22;9828;54.122;17.974;2022-07-04T18:26:15;21.60;99.90
19385;DHT22;9828;54.122;17.974;2022-07-04T18:31:37;21.60;99.90
19385;DHT22;9828;54.122;17.974;2022-07-04T18:36:58;21.50;99.90
19385;DHT22;9828;54.122;17.974;2022-07-04T18:42:21;21.50;99.90
19385;DHT22;9828;54.122;17.974;2022-07-04T18:48:01;21.30;99.90
19385;DHT22;9828;54.122;17.974;2022-07-04T18:53:23;21.20;99.90
19385;DHT22;9828;54.122;17.974;2022-07-04T18:58:45;21.00;99.90
19385;DHT22;9828;54.122;17.974;2022-07-04T19:04:06;20.90;99.90
19385;DHT22;9828;54.122;17.974;2022-07-04T19:09:28;20.70;99.90
19385;DHT22;9828;54.122;17.974;2022-07-04T19:14:50;20.70;99.90
19385;DHT22;9828;54.122;17.974;2022-07-04T19:20:12;20.60;99.90
19385;DHT22;9828;54.122;17.974;2022-07-04T19:25:34;20.50;99.90
19385;DHT22;9828;54.122;17.974;2022-07-04T19:31:11;20.50;99.90
19385;DHT22;9828;54.122;17.974;2022-07-04T19:36:32;20.40;99.90
19385;DHT22;9828;54.122;17.974;2022-07-04T19:41:54;20.30;99.90
19385;DHT22;9828;54.122;17.974;2022-07-04T19:47:15;20.30;99.90
19385;DHT22;9828;54.122;17.974;2022-07-04T19:52:39;20.20;99.90
19385;DHT22;9828;54.122;17.974;2022-07-04T20:08:45;20.00;99.90
19385;DHT22;9828;54.122;17.974;2022-07-04T20:14:06;19.90;99.90
19385;DHT22;9828;54.122;17.974;2022-07-04T20:19:28;19.80;99.90
19385;DHT22;9828;54.122;17.974;2022-07-04T20:24:52;19.70;99.90
19385;DHT22;9828;54.122;17.974;2022-07-04T20:30:14;19.50;99.90
19385;DHT22;9828;54.122;17.974;2022-07-04T20:35:35;19.50;99.90
19385;DHT22;9828;54.122;17.974;2022-07-04T20:40:57;19.40;99.90
19385;DHT22;9828;54.122;17.974;2022-07-04T20:46:18;19.30;99.90
19385;DHT22;9828;54.122;17.974;2022-07-04T20:51:40;19.10;99.90
19385;DHT22;9828;54.122;17.974;2022-07-04T20:57:03;19.00;1.00
19385;DHT22;9828;54.122;17.974;2022-07-04T21:02:26;18.90;1.00
19385;DHT22;9828;54.122;17.974;2022-07-04T21:07:48;18.80;1.00
19385;DHT22;9828;54.122;17.974;2022-07-04T21:13:10;18.70;1.00
19385;DHT22;9828;54.122;17.974;2022-07-04T21:18:31;18.70;1.00
19385;DHT22;9828;54.122;17.974;2022-07-04T21:23:52;18.70;1.00
19385;DHT22;9828;54.122;17.974;2022-07-04T21:29:14;18.50;1.00
19385;DHT22;9828;54.122;17.974;2022-07-04T21:34:35;18.40;1.00
19385;DHT22;9828;54.122;17.974;2022-07-04T21:39:57;18.20;1.00
19385;DHT22;9828;54.122;17.974;2022-07-04T21:45:18;18.10;1.00
19385;DHT22;9828;54.122;17.974;2022-07-04T21:50:40;18.00;1.00
19385;DHT22;9828;54.122;17.974;2022-07-04T21:56:01;17.90;99.90
19385;DHT22;9828;54.122;17.974;2022-07-04T22:01:22;17.80;99.90
19385;DHT22;9828;54.122;17.974;2022-07-04T22:06:43;17.70;1.00
19385;DHT22;9828;54.122;17.974;2022-07-04T22:12:05;17.60;1.00
19385;DHT22;9828;54.122;17.974;2022-07-04T22:17:26;17.50;99.90
19385;DHT22;9828;54.122;17.974;2022-07-04T22:22:48;17.30;1.00
19385;DHT22;9828;54.122;17.974;2022-07-04T22:28:10;17.20;1.00
19385;DHT22;9828;54.122;17.974;2022-07-04T22:33:31;17.10;1.00
19385;DHT22;9828;54.122;17.974;2022-07-04T22:38:53;17.00;99.90
19385;DHT22;9828;54.122;17.974;2022-07-04T22:44:15;17.00;1.00
19385;DHT22;9828;54.122;17.974;2022-07-04T22:49:36;16.90;1.00
19385;DHT22;9828;54.122;17.974;2022-07-04T22:54:58;16.90;1.00
19385;DHT22;9828;54.122;17.974;2022-07-04T23:06:34;16.80;47.20
19385;DHT22;9828;54.122;17.974;2022-07-04T23:11:55;16.70;99.90
19385;DHT22;9828;54.122;17.974;2022-07-04T23:17:16;16.70;1.00
19385;DHT22;9828;54.122;17.974;2022-07-04T23:22:38;16.60;1.00
19385;DHT22;9828;54.122;17.974;2022-07-04T23:27:59;16.60;40.20
19385;DHT22;9828;54.122;17.974;2022-07-04T23:33:21;16.50;1.00
19385;DHT22;9828;54.122;17.974;2022-07-04T23:38:42;16.50;99.90
19385;DHT22;9828;54.122;17.974;2022-07-04T23:44:04;16.40;99.90
19385;DHT22;9828;54.122;17.974;2022-07-04T23:49:25;16.40;1.00
19385;DHT22;9828;54.122;17.974;2022-07-04T23:54:48;16.30;1.00
